Terminal Aerodrome Forecast
Issued by NWS

Home | Current Version | Previous Version | Graphics & Text | Print | Product List | Glossary On
Versions: 1 2 3 4 5 6 7 8 9 10 11
970
FTUS43 KTOP 222320
TAFMHK
TAF
KMHK 222320Z 2300/2324 04013G23KT P6SM FEW080
     FM230100 VRB04KT P6SM SKC=

USA.gov is the U.S. government's official web portal to all federal, state and local government web resources and services.